Akiachak, AK (99551)

3:44 AM AKDT on July 24, 2014 (GMT -0800)
Kwethluk AP, Kwethluk, AK (PFKW) Elev 26 ft | 60.79 °N, 161.44 °W | Change Station

Current weather conditions updated 48 minutes ago

Overcast
Overcast
51 °F
Feels Like 51 °F
N
7
Wind Variable Wind from SW

Today is forecast to be Much Warmer than yesterday.

Today
High -- | Low -- °F
--% Chance of Precip.
Yesterday
High -- | Low -- °F
Precip. -- in
6:01 AM 11:41 PM
Waning Crescent, 5% visible
Pressure 29.84 in
Visibility 5.0 miles
Clouds Overcast 400 ft
Dew Point 50 °F
Humidity 96%
Rainfall 0.00 in
Snow Depth Not available.
UV 0 out of 12
Pollen Not available.
Air Quality Not available.
Flu Activity Not available.
METAR PFKW 241056Z AUTO 22006KT 5SM BR OVC004 11/10 A2984 RMK AO2 SLP104 T01060100 $

More Conditions Fewer Conditions

Pressure 29.84 in
Visibility 5.0 miles
Clouds Overcast 400 ft
Dew Point 50 °F
Humidity 96%
Rainfall 0.00 in
Snow Depth Not available.
UV 0 out of 12
Pollen Not available.
Air Quality Not available.
Flu Activity Not available.
METAR PFKW 241056Z AUTO 22006KT 5SM BR OVC004 11/10 A2984 RMK AO2 SLP104 T01060100 $

More Conditions Fewer Conditions

10-Day Weather Forecast

Almanac

Astronomy

Jul. 24, 2014 Rise Set
Actual Time 6:01 AM AKDT 11:41 PM AKDT
Civil Twilight 4:48 AM AKDT 12:53 AM AKDT
Nautical Twilight Sun does not rise 2:19 AM AKDT
Astronomical Twilight Sun does not rise Sun does not rise
Moon 4:29 AM AKDT 9:50 PM AKDT
Length of Visible Light 20h 05m
Length of Day
17h 39m
Tomorrow will be 4m 46s shorter.
Waning Crescent, 5% of the Moon is Illuminated
Today
Waning Crescent
Jul 26
New
Aug 3
First Quarter
Aug 10
Full
Aug 17
Last Quarter

Today's Extremes

State Highs State Lows

Community

WunderPhotos

Upload Photos

1,736,978 photos uploaded!

Nearby

Snow Depth

Station Depth Elevation
Rocky Point 2 in 500 ft
Mcneil Canyon 1 in 1320 ft
Port Graham 0 in 300 ft
MF Bradley River 28 in 2300 ft
Point Mackenzie 1 in 200 ft

Earthquake Activity

City Distance Mag. Time & Date
No recent earthquake activity has been reported nearby.
Minimum magnitude displayed is 2.5.

Coastal Water Temperatures

Place Temperature
No Stations Reporting

Nearby Weather Stations

There are no personal weather stations in this area.